METAR Formatted Surface Weather Observation
Issued by NWS

Home | Current Version | Previous Version | Text Only | Print | Product List | Glossary On
Versions: 1 2 3 4 5 6 7 8 9 10 11 12 13 14 15 16 17 18 19 20 21 22 23 24 25 26 27 28 29 30 31 32 33 34 35 36 37 38 39 40 41 42 43 44 45 46 47 48 49 50
000
SAUS46 KSGX 180552
MTRSAN
METAR KSAN 180551Z 18005KT 10SM BKN020 OVC025 17/12 A2994 RMK AO2
SLP137 T01670117 10178 20167 50010



USA.gov is the U.S. government's official web portal to all federal, state and local government web resources and services.